sensor_id;sensor_type;location;lat;lon;timestamp;temperature;humidity
31687;DHT22;18285;51.330;4.946;2024-02-04T00:11:54;27.30;34.70
31687;DHT22;18285;51.330;4.946;2024-02-04T00:36:04;27.40;34.40
31687;DHT22;18285;51.330;4.946;2024-02-04T01:00:15;27.70;33.80
31687;DHT22;18285;51.330;4.946;2024-02-04T01:24:26;27.70;33.70
31687;DHT22;18285;51.330;4.946;2024-02-04T01:48:36;27.90;33.50
31687;DHT22;18285;51.330;4.946;2024-02-04T02:12:48;27.90;33.20
31687;DHT22;18285;51.330;4.946;2024-02-04T03:01:26;27.90;33.00
31687;DHT22;18285;51.330;4.946;2024-02-04T03:25:37;27.90;32.80
31687;DHT22;18285;51.330;4.946;2024-02-04T03:49:48;27.90;32.80
31687;DHT22;18285;51.330;4.946;2024-02-04T04:13:58;27.80;32.80
31687;DHT22;18285;51.330;4.946;2024-02-04T04:38:09;27.70;32.80
31687;DHT22;18285;51.330;4.946;2024-02-04T05:02:19;27.70;32.90
31687;DHT22;18285;51.330;4.946;2024-02-04T05:26:30;27.70;33.10
31687;DHT22;18285;51.330;4.946;2024-02-04T05:50:40;27.50;33.40
31687;DHT22;18285;51.330;4.946;2024-02-04T06:14:52;27.30;33.40
31687;DHT22;18285;51.330;4.946;2024-02-04T06:39:02;27.30;33.60
31687;DHT22;18285;51.330;4.946;2024-02-04T07:03:13;27.10;33.70
31687;DHT22;18285;51.330;4.946;2024-02-04T07:27:23;27.00;33.90
31687;DHT22;18285;51.330;4.946;2024-02-04T07:51:34;26.90;34.30
31687;DHT22;18285;51.330;4.946;2024-02-04T08:15:46;26.80;34.40
31687;DHT22;18285;51.330;4.946;2024-02-04T08:39:57;26.60;34.70
31687;DHT22;18285;51.330;4.946;2024-02-04T09:04:07;26.50;34.90
31687;DHT22;18285;51.330;4.946;2024-02-04T09:52:34;26.40;36.10
31687;DHT22;18285;51.330;4.946;2024-02-04T10:16:48;26.30;36.10
31687;DHT22;18285;51.330;4.946;2024-02-04T10:41:00;26.30;36.00
31687;DHT22;18285;51.330;4.946;2024-02-04T11:05:13;26.10;36.50
31687;DHT22;18285;51.330;4.946;2024-02-04T11:29:25;26.10;36.60
31687;DHT22;18285;51.330;4.946;2024-02-04T12:02:11;25.90;36.40
31687;DHT22;18285;51.330;4.946;2024-02-04T12:50:38;25.60;37.40
31687;DHT22;18285;51.330;4.946;2024-02-04T13:14:48;25.40;37.70
31687;DHT22;18285;51.330;4.946;2024-02-04T13:38:59;25.50;33.70
31687;DHT22;18285;51.330;4.946;2024-02-04T14:03:10;25.20;37.30
31687;DHT22;18285;51.330;4.946;2024-02-04T14:27:23;25.30;37.80
31687;DHT22;18285;51.330;4.946;2024-02-04T14:51:34;25.40;37.60
31687;DHT22;18285;51.330;4.946;2024-02-04T15:15:49;25.30;37.70
31687;DHT22;18285;51.330;4.946;2024-02-04T15:40:00;25.30;37.80
31687;DHT22;18285;51.330;4.946;2024-02-04T16:04:15;25.20;37.90
31687;DHT22;18285;51.330;4.946;2024-02-04T16:28:28;25.20;38.00
31687;DHT22;18285;51.330;4.946;2024-02-04T16:52:38;25.30;37.00
31687;DHT22;18285;51.330;4.946;2024-02-04T17:17:12;24.70;37.00
31687;DHT22;18285;51.330;4.946;2024-02-04T17:41:24;24.80;38.10
31687;DHT22;18285;51.330;4.946;2024-02-04T18:05:35;24.60;39.40
31687;DHT22;18285;51.330;4.946;2024-02-04T18:29:51;24.60;40.60
31687;DHT22;18285;51.330;4.946;2024-02-04T18:54:03;24.30;43.20
31687;DHT22;18285;51.330;4.946;2024-02-04T19:18:14;24.00;44.00
31687;DHT22;18285;51.330;4.946;2024-02-04T19:42:25;24.20;42.10
31687;DHT22;18285;51.330;4.946;2024-02-04T20:06:36;24.50;41.40
31687;DHT22;18285;51.330;4.946;2024-02-04T20:30:47;24.60;41.80
31687;DHT22;18285;51.330;4.946;2024-02-04T20:54:58;25.00;41.00
31687;DHT22;18285;51.330;4.946;2024-02-04T21:19:09;25.00;40.60
31687;DHT22;18285;51.330;4.946;2024-02-04T21:43:20;25.10;40.50
31687;DHT22;18285;51.330;4.946;2024-02-04T22:07:31;25.40;39.50
31687;DHT22;18285;51.330;4.946;2024-02-04T22:31:41;25.50;38.90
31687;DHT22;18285;51.330;4.946;2024-02-04T22:55:53;25.70;38.50
31687;DHT22;18285;51.330;4.946;2024-02-04T23:20:05;25.90;37.90
31687;DHT22;18285;51.330;4.946;2024-02-04T23:44:15;26.40;37.20
